sensor_id;sensor_type;location;lat;lon;timestamp;pressure;altitude;pressure_sealevel;temperature;humidity
34979;BME280;21185;50.978;13.720;2023-08-07T00:03:35;97089.84;;;16.00;83.86
34979;BME280;21185;50.978;13.720;2023-08-07T00:08:37;97088.25;;;15.99;83.94
34979;BME280;21185;50.978;13.720;2023-08-07T00:13:40;97083.00;;;15.99;84.07
34979;BME280;21185;50.978;13.720;2023-08-07T00:18:42;97094.72;;;15.96;83.91
34979;BME280;21185;50.978;13.720;2023-08-07T00:23:44;97096.75;;;15.94;84.14
34979;BME280;21185;50.978;13.720;2023-08-07T00:28:46;97092.78;;;15.92;84.10
34979;BME280;21185;50.978;13.720;2023-08-07T00:33:48;97096.41;;;15.91;84.09
34979;BME280;21185;50.978;13.720;2023-08-07T00:38:53;97095.63;;;15.90;84.15
34979;BME280;21185;50.978;13.720;2023-08-07T00:43:55;97095.41;;;15.92;84.18
34979;BME280;21185;50.978;13.720;2023-08-07T00:48:57;97090.16;;;15.92;84.32
34979;BME280;21185;50.978;13.720;2023-08-07T00:54:02;97098.81;;;15.92;84.27
34979;BME280;21185;50.978;13.720;2023-08-07T00:59:05;97104.59;;;15.94;84.19
34979;BME280;21185;50.978;13.720;2023-08-07T01:04:07;97102.78;;;15.95;84.51
34979;BME280;21185;50.978;13.720;2023-08-07T01:09:10;97100.41;;;15.93;84.44
34979;BME280;21185;50.978;13.720;2023-08-07T01:14:41;97096.53;;;15.96;84.47
34979;BME280;21185;50.978;13.720;2023-08-07T01:19:50;97097.78;;;15.93;84.42
34979;BME280;21185;50.978;13.720;2023-08-07T01:24:53;97098.59;;;15.94;84.23
34979;BME280;21185;50.978;13.720;2023-08-07T01:35:22;97091.53;;;15.94;83.98
34979;BME280;21185;50.978;13.720;2023-08-07T01:40:28;97091.41;;;15.89;84.09
34979;BME280;21185;50.978;13.720;2023-08-07T01:45:31;97092.44;;;15.88;84.06
34979;BME280;21185;50.978;13.720;2023-08-07T01:50:34;97086.84;;;15.84;84.41
34979;BME280;21185;50.978;13.720;2023-08-07T01:55:36;97091.72;;;15.81;84.27
34979;BME280;21185;50.978;13.720;2023-08-07T02:00:38;97100.38;;;15.81;84.29
34979;BME280;21185;50.978;13.720;2023-08-07T02:05:47;97108.22;;;15.81;84.61
34979;BME280;21185;50.978;13.720;2023-08-07T02:10:49;97112.66;;;15.81;84.54
34979;BME280;21185;50.978;13.720;2023-08-07T02:15:51;97108.44;;;15.80;84.67
34979;BME280;21185;50.978;13.720;2023-08-07T02:20:53;97106.84;;;15.79;84.96
34979;BME280;21185;50.978;13.720;2023-08-07T02:25:55;97110.25;;;15.79;84.85
34979;BME280;21185;50.978;13.720;2023-08-07T02:30:57;97107.88;;;15.78;85.11
34979;BME280;21185;50.978;13.720;2023-08-07T02:36:01;97113.09;;;15.78;85.21
34979;BME280;21185;50.978;13.720;2023-08-07T02:41:03;97110.47;;;15.78;85.59
34979;BME280;21185;50.978;13.720;2023-08-07T02:46:05;97118.78;;;15.75;85.50
34979;BME280;21185;50.978;13.720;2023-08-07T02:51:07;97124.81;;;15.75;85.58
34979;BME280;21185;50.978;13.720;2023-08-07T02:56:09;97119.00;;;15.73;85.56
34979;BME280;21185;50.978;13.720;2023-08-07T03:01:12;97126.63;;;15.75;85.53
34979;BME280;21185;50.978;13.720;2023-08-07T03:06:15;97132.28;;;15.72;85.73
34979;BME280;21185;50.978;13.720;2023-08-07T03:11:17;97126.13;;;15.66;85.87
34979;BME280;21185;50.978;13.720;2023-08-07T03:16:19;97131.22;;;15.61;86.01
34979;BME280;21185;50.978;13.720;2023-08-07T03:21:22;97135.34;;;15.57;86.14
34979;BME280;21185;50.978;13.720;2023-08-07T03:26:24;97145.41;;;15.53;86.37
34979;BME280;21185;50.978;13.720;2023-08-07T03:31:26;97165.38;;;15.48;86.69
34979;BME280;21185;50.978;13.720;2023-08-07T03:36:28;97180.50;;;15.46;86.67
34979;BME280;21185;50.978;13.720;2023-08-07T03:41:30;97187.91;;;15.49;86.78
34979;BME280;21185;50.978;13.720;2023-08-07T03:46:33;97189.28;;;15.51;86.51
34979;BME280;21185;50.978;13.720;2023-08-07T03:51:35;97188.84;;;15.54;86.50
34979;BME280;21185;50.978;13.720;2023-08-07T03:56:37;97202.50;;;15.57;86.48
34979;BME280;21185;50.978;13.720;2023-08-07T04:01:40;97200.72;;;15.57;86.21
34979;BME280;21185;50.978;13.720;2023-08-07T04:06:42;97211.16;;;15.57;86.17
34979;BME280;21185;50.978;13.720;2023-08-07T04:11:46;97207.72;;;15.57;86.25
34979;BME280;21185;50.978;13.720;2023-08-07T04:16:48;97210.34;;;15.57;85.92
34979;BME280;21185;50.978;13.720;2023-08-07T04:21:50;97220.78;;;15.57;86.15
34979;BME280;21185;50.978;13.720;2023-08-07T04:26:52;97224.44;;;15.55;86.13
34979;BME280;21185;50.978;13.720;2023-08-07T04:31:55;97226.03;;;15.57;86.04
34979;BME280;21185;50.978;13.720;2023-08-07T04:36:57;97236.47;;;15.57;86.04
34979;BME280;21185;50.978;13.720;2023-08-07T04:41:59;97250.78;;;15.54;86.12
34979;BME280;21185;50.978;13.720;2023-08-07T04:47:01;97239.53;;;15.53;86.33
34979;BME280;21185;50.978;13.720;2023-08-07T04:52:03;97253.41;;;15.54;86.16
34979;BME280;21185;50.978;13.720;2023-08-07T04:57:25;97251.81;;;15.53;86.49
34979;BME280;21185;50.978;13.720;2023-08-07T05:02:27;97251.81;;;15.53;86.29
34979;BME280;21185;50.978;13.720;2023-08-07T05:07:29;97248.97;;;15.54;86.49
34979;BME280;21185;50.978;13.720;2023-08-07T05:12:31;97248.19;;;15.54;86.67
34979;BME280;21185;50.978;13.720;2023-08-07T05:17:33;97255.81;;;15.55;86.59
34979;BME280;21185;50.978;13.720;2023-08-07T05:22:35;97258.81;;;15.59;86.65
34979;BME280;21185;50.978;13.720;2023-08-07T05:27:37;97260.63;;;15.59;86.81
34979;BME280;21185;50.978;13.720;2023-08-07T05:32:39;97271.41;;;15.62;87.10
34979;BME280;21185;50.978;13.720;2023-08-07T05:37:41;97268.94;;;15.67;86.96
34979;BME280;21185;50.978;13.720;2023-08-07T05:42:43;97273.31;;;15.73;87.21
34979;BME280;21185;50.978;13.720;2023-08-07T05:47:45;97290.16;;;15.77;86.92
34979;BME280;21185;50.978;13.720;2023-08-07T05:52:47;97290.94;;;15.78;86.96
34979;BME280;21185;50.978;13.720;2023-08-07T05:57:49;97296.31;;;15.83;86.72
34979;BME280;21185;50.978;13.720;2023-08-07T06:02:52;97291.69;;;15.85;86.82
34979;BME280;21185;50.978;13.720;2023-08-07T06:07:53;97298.06;;;15.89;86.97
34979;BME280;21185;50.978;13.720;2023-08-07T06:12:55;97305.69;;;15.91;86.92
34979;BME280;21185;50.978;13.720;2023-08-07T06:17:57;97321.63;;;15.89;86.58
34979;BME280;21185;50.978;13.720;2023-08-07T06:22:59;97322.28;;;15.84;86.73
34979;BME280;21185;50.978;13.720;2023-08-07T06:28:02;97338.31;;;15.88;86.47
34979;BME280;21185;50.978;13.720;2023-08-07T06:33:04;97346.53;;;15.92;86.38
34979;BME280;21185;50.978;13.720;2023-08-07T06:38:06;97347.56;;;15.91;86.42
34979;BME280;21185;50.978;13.720;2023-08-07T06:43:07;97358.25;;;15.89;86.34
34979;BME280;21185;50.978;13.720;2023-08-07T06:48:09;97358.25;;;15.89;86.44
34979;BME280;21185;50.978;13.720;2023-08-07T06:53:11;97363.03;;;15.92;86.04
34979;BME280;21185;50.978;13.720;2023-08-07T06:58:13;97366.44;;;15.93;86.03
34979;BME280;21185;50.978;13.720;2023-08-07T07:03:15;97367.97;;;16.00;86.26
34979;BME280;21185;50.978;13.720;2023-08-07T07:08:17;97379.38;;;16.06;85.84
34979;BME280;21185;50.978;13.720;2023-08-07T07:13:19;97382.66;;;16.01;85.29
34979;BME280;21185;50.978;13.720;2023-08-07T07:18:22;97380.31;;;15.93;85.49
34979;BME280;21185;50.978;13.720;2023-08-07T07:23:24;97391.44;;;15.88;85.93
34979;BME280;21185;50.978;13.720;2023-08-07T07:28:27;97384.69;;;15.81;85.61
34979;BME280;21185;50.978;13.720;2023-08-07T07:33:30;97394.06;;;15.88;85.93
34979;BME280;21185;50.978;13.720;2023-08-07T07:38:33;97404.47;;;15.95;85.73
34979;BME280;21185;50.978;13.720;2023-08-07T07:43:35;97398.78;;;15.98;85.94
34979;BME280;21185;50.978;13.720;2023-08-07T07:48:37;97408.47;;;15.98;85.92
34979;BME280;21185;50.978;13.720;2023-08-07T07:53:38;97418.84;;;16.23;86.09
34979;BME280;21185;50.978;13.720;2023-08-07T07:58:40;97421.84;;;16.26;85.95
34979;BME280;21185;50.978;13.720;2023-08-07T08:03:43;97431.56;;;16.37;85.63
34979;BME280;21185;50.978;13.720;2023-08-07T08:08:45;97437.03;;;16.54;85.68
34979;BME280;21185;50.978;13.720;2023-08-07T08:13:47;97432.38;;;16.74;85.31
34979;BME280;21185;50.978;13.720;2023-08-07T08:18:50;97448.66;;;16.76;84.62
34979;BME280;21185;50.978;13.720;2023-08-07T08:23:52;97439.41;;;16.74;83.99
34979;BME280;21185;50.978;13.720;2023-08-07T08:28:54;97439.47;;;16.86;84.03
34979;BME280;21185;50.978;13.720;2023-08-07T08:33:56;97467.41;;;16.92;83.31
34979;BME280;21185;50.978;13.720;2023-08-07T08:38:59;97475.66;;;16.77;82.55
34979;BME280;21185;50.978;13.720;2023-08-07T08:44:04;97475.34;;;16.85;82.92
34979;BME280;21185;50.978;13.720;2023-08-07T08:49:09;97467.09;;;17.00;82.69
34979;BME280;21185;50.978;13.720;2023-08-07T08:54:12;97470.16;;;16.97;82.45
34979;BME280;21185;50.978;13.720;2023-08-07T08:59:15;97478.28;;;17.07;82.37
34979;BME280;21185;50.978;13.720;2023-08-07T09:04:20;97486.09;;;16.95;81.86
34979;BME280;21185;50.978;13.720;2023-08-07T09:09:22;97491.50;;;16.82;82.20
34979;BME280;21185;50.978;13.720;2023-08-07T09:14:27;97493.19;;;16.76;81.94
34979;BME280;21185;50.978;13.720;2023-08-07T09:19:33;97496.25;;;16.73;82.01
34979;BME280;21185;50.978;13.720;2023-08-07T09:24:35;97492.31;;;16.82;81.52
34979;BME280;21185;50.978;13.720;2023-08-07T09:29:39;97498.09;;;17.03;81.49
34979;BME280;21185;50.978;13.720;2023-08-07T09:34:42;97501.69;;;17.20;81.43
34979;BME280;21185;50.978;13.720;2023-08-07T09:39:46;97499.81;;;17.39;79.96
34979;BME280;21185;50.978;13.720;2023-08-07T09:44:48;97506.13;;;17.49;80.17
34979;BME280;21185;50.978;13.720;2023-08-07T09:49:54;97503.38;;;17.44;79.92
34979;BME280;21185;50.978;13.720;2023-08-07T09:54:57;97501.84;;;17.25;79.69
34979;BME280;21185;50.978;13.720;2023-08-07T10:00:00;97495.56;;;17.26;79.21
34979;BME280;21185;50.978;13.720;2023-08-07T10:05:13;97498.44;;;17.36;78.54
34979;BME280;21185;50.978;13.720;2023-08-07T10:10:15;97500.94;;;17.31;78.38
34979;BME280;21185;50.978;13.720;2023-08-07T10:15:19;97505.69;;;17.23;77.99
34979;BME280;21185;50.978;13.720;2023-08-07T10:20:21;97500.22;;;17.24;78.15
34979;BME280;21185;50.978;13.720;2023-08-07T10:25:25;97499.56;;;17.29;77.70
34979;BME280;21185;50.978;13.720;2023-08-07T10:30:29;97511.53;;;17.25;77.29
34979;BME280;21185;50.978;13.720;2023-08-07T10:35:33;97514.91;;;17.13;78.03
34979;BME280;21185;50.978;13.720;2023-08-07T10:41:00;97499.56;;;16.99;78.97
34979;BME280;21185;50.978;13.720;2023-08-07T10:46:06;97496.84;;;17.05;79.73
34979;BME280;21185;50.978;13.720;2023-08-07T10:51:15;97505.75;;;17.34;80.21
34979;BME280;21185;50.978;13.720;2023-08-07T10:56:34;97500.06;;;17.49;80.29
34979;BME280;21185;50.978;13.720;2023-08-07T11:06:42;97502.09;;;17.89;78.81
34979;BME280;21185;50.978;13.720;2023-08-07T11:11:47;97505.19;;;17.97;nan
34979;BME280;21185;50.978;13.720;2023-08-07T11:16:50;97503.38;;;18.21;77.03
34979;BME280;21185;50.978;13.720;2023-08-07T11:21:54;97509.97;;;18.35;76.03
34979;BME280;21185;50.978;13.720;2023-08-07T11:26:57;97502.75;;;18.54;76.22
34979;BME280;21185;50.978;13.720;2023-08-07T11:32:05;97495.66;;;18.55;73.78
34979;BME280;21185;50.978;13.720;2023-08-07T11:37:17;97506.41;;;18.65;73.85
34979;BME280;21185;50.978;13.720;2023-08-07T11:42:21;97514.72;;;18.73;73.37
34979;BME280;21185;50.978;13.720;2023-08-07T11:47:24;97518.97;;;18.74;73.28
34979;BME280;21185;50.978;13.720;2023-08-07T11:52:26;97547.97;;;18.56;72.61
34979;BME280;21185;50.978;13.720;2023-08-07T11:57:29;97538.50;;;17.97;74.93
34979;BME280;21185;50.978;13.720;2023-08-07T12:02:35;97538.34;;;17.68;76.99
34979;BME280;21185;50.978;13.720;2023-08-07T12:07:38;97546.00;;;17.70;78.54
34979;BME280;21185;50.978;13.720;2023-08-07T12:12:42;97537.91;;;17.71;78.96
34979;BME280;21185;50.978;13.720;2023-08-07T12:17:46;97545.44;;;17.79;79.25
34979;BME280;21185;50.978;13.720;2023-08-07T12:22:48;97546.94;;;17.87;79.41
34979;BME280;21185;50.978;13.720;2023-08-07T12:27:51;97550.84;;;17.96;79.35
34979;BME280;21185;50.978;13.720;2023-08-07T12:32:54;97543.53;;;17.98;79.06
34979;BME280;21185;50.978;13.720;2023-08-07T12:37:56;97535.31;;;18.06;78.41
34979;BME280;21185;50.978;13.720;2023-08-07T12:42:58;97533.72;;;18.05;78.25
34979;BME280;21185;50.978;13.720;2023-08-07T12:48:01;97533.03;;;18.22;78.23
34979;BME280;21185;50.978;13.720;2023-08-07T12:53:05;97525.63;;;18.30;77.37
34979;BME280;21185;50.978;13.720;2023-08-07T12:58:08;97537.59;;;18.38;76.07
34979;BME280;21185;50.978;13.720;2023-08-07T13:03:10;97535.56;;;18.40;74.65
34979;BME280;21185;50.978;13.720;2023-08-07T13:08:12;97540.00;;;18.39;73.91
34979;BME280;21185;50.978;13.720;2023-08-07T13:13:14;97560.91;;;18.46;73.88
34979;BME280;21185;50.978;13.720;2023-08-07T13:18:16;97567.41;;;18.55;74.12
34979;BME280;21185;50.978;13.720;2023-08-07T13:23:18;97573.59;;;18.61;74.21
34979;BME280;21185;50.978;13.720;2023-08-07T13:28:20;97574.28;;;18.68;73.76
34979;BME280;21185;50.978;13.720;2023-08-07T13:33:22;97571.06;;;18.77;74.00
34979;BME280;21185;50.978;13.720;2023-08-07T13:38:24;97585.47;;;18.75;72.81
34979;BME280;21185;50.978;13.720;2023-08-07T13:43:26;97583.16;;;18.79;73.41
34979;BME280;21185;50.978;13.720;2023-08-07T13:48:28;97585.47;;;18.75;73.03
34979;BME280;21185;50.978;13.720;2023-08-07T13:53:30;97590.16;;;18.61;72.83
34979;BME280;21185;50.978;13.720;2023-08-07T13:58:32;97599.41;;;18.64;72.68
34979;BME280;21185;50.978;13.720;2023-08-07T14:03:34;97593.44;;;18.80;72.58
34979;BME280;21185;50.978;13.720;2023-08-07T14:08:37;97615.63;;;18.84;72.18
34979;BME280;21185;50.978;13.720;2023-08-07T14:13:39;97641.47;;;18.64;71.82
34979;BME280;21185;50.978;13.720;2023-08-07T14:18:41;97665.50;;;18.26;73.83
34979;BME280;21185;50.978;13.720;2023-08-07T14:23:43;97669.63;;;17.92;75.06
34979;BME280;21185;50.978;13.720;2023-08-07T14:28:47;97682.44;;;17.70;75.87
34979;BME280;21185;50.978;13.720;2023-08-07T14:33:49;97687.16;;;17.61;76.65
34979;BME280;21185;50.978;13.720;2023-08-07T14:38:52;97696.56;;;17.69;77.83
34979;BME280;21185;50.978;13.720;2023-08-07T14:43:54;97683.88;;;17.84;78.21
34979;BME280;21185;50.978;13.720;2023-08-07T14:48:56;97692.13;;;17.99;78.42
34979;BME280;21185;50.978;13.720;2023-08-07T14:53:58;97686.78;;;18.06;78.04
34979;BME280;21185;50.978;13.720;2023-08-07T14:59:00;97696.63;;;18.10;77.76
34979;BME280;21185;50.978;13.720;2023-08-07T15:04:02;97700.19;;;18.16;77.41
34979;BME280;21185;50.978;13.720;2023-08-07T15:09:04;97696.03;;;18.08;76.63
34979;BME280;21185;50.978;13.720;2023-08-07T15:14:06;97712.69;;;18.02;76.17
34979;BME280;21185;50.978;13.720;2023-08-07T15:19:09;97715.50;;;17.89;75.07
34979;BME280;21185;50.978;13.720;2023-08-07T15:24:11;97730.31;;;17.84;75.19
34979;BME280;21185;50.978;13.720;2023-08-07T15:29:13;97725.72;;;17.79;75.33
34979;BME280;21185;50.978;13.720;2023-08-07T15:34:15;97723.09;;;17.79;75.21
34979;BME280;21185;50.978;13.720;2023-08-07T15:39:17;97710.47;;;17.88;75.43
34979;BME280;21185;50.978;13.720;2023-08-07T15:44:19;97715.09;;;18.04;75.35
34979;BME280;21185;50.978;13.720;2023-08-07T15:49:21;97729.59;;;18.06;75.04
34979;BME280;21185;50.978;13.720;2023-08-07T15:54:23;97721.69;;;17.95;73.69
34979;BME280;21185;50.978;13.720;2023-08-07T15:59:25;97736.25;;;17.91;73.36
34979;BME280;21185;50.978;13.720;2023-08-07T16:04:28;97758.22;;;17.78;73.31
34979;BME280;21185;50.978;13.720;2023-08-07T16:09:30;97790.13;;;17.57;74.57
34979;BME280;21185;50.978;13.720;2023-08-07T16:14:33;97791.91;;;17.20;75.52
34979;BME280;21185;50.978;13.720;2023-08-07T16:19:39;97788.13;;;16.91;76.85
34979;BME280;21185;50.978;13.720;2023-08-07T16:24:41;97786.19;;;16.79;77.54
34979;BME280;21185;50.978;13.720;2023-08-07T16:29:43;97781.59;;;16.75;78.38
34979;BME280;21185;50.978;13.720;2023-08-07T16:34:45;97783.41;;;16.74;78.49
34979;BME280;21185;50.978;13.720;2023-08-07T16:39:47;97776.94;;;16.77;79.12
34979;BME280;21185;50.978;13.720;2023-08-07T16:44:50;97794.22;;;16.84;78.79
34979;BME280;21185;50.978;13.720;2023-08-07T16:49:52;97797.59;;;16.92;79.52
34979;BME280;21185;50.978;13.720;2023-08-07T16:54:54;97801.22;;;16.91;79.73
34979;BME280;21185;50.978;13.720;2023-08-07T16:59:56;97788.97;;;16.84;79.77
34979;BME280;21185;50.978;13.720;2023-08-07T17:04:58;97797.31;;;16.75;79.52
34979;BME280;21185;50.978;13.720;2023-08-07T17:10:00;97812.66;;;16.71;79.50
34979;BME280;21185;50.978;13.720;2023-08-07T17:15:02;97814.09;;;16.67;79.54
34979;BME280;21185;50.978;13.720;2023-08-07T17:20:05;97828.41;;;16.65;79.39
34979;BME280;21185;50.978;13.720;2023-08-07T17:25:08;97835.88;;;16.61;79.21
34979;BME280;21185;50.978;13.720;2023-08-07T17:30:10;97853.44;;;16.54;79.23
34979;BME280;21185;50.978;13.720;2023-08-07T17:35:12;97851.06;;;16.46;78.87
34979;BME280;21185;50.978;13.720;2023-08-07T17:40:15;97877.28;;;16.39;78.73
34979;BME280;21185;50.978;13.720;2023-08-07T17:45:18;97872.31;;;16.25;78.50
34979;BME280;21185;50.978;13.720;2023-08-07T17:50:20;97871.16;;;16.07;78.40
34979;BME280;21185;50.978;13.720;2023-08-07T17:55:22;97873.00;;;16.00;78.70
34979;BME280;21185;50.978;13.720;2023-08-07T18:00:25;97871.22;;;15.94;78.71
34979;BME280;21185;50.978;13.720;2023-08-07T18:05:27;97869.22;;;15.90;78.62
34979;BME280;21185;50.978;13.720;2023-08-07T18:10:29;97874.66;;;15.88;78.60
34979;BME280;21185;50.978;13.720;2023-08-07T18:15:31;97873.63;;;15.89;78.80
34979;BME280;21185;50.978;13.720;2023-08-07T18:20:32;97891.75;;;15.91;78.74
34979;BME280;21185;50.978;13.720;2023-08-07T18:25:34;97889.34;;;15.89;78.72
34979;BME280;21185;50.978;13.720;2023-08-07T18:30:36;97906.03;;;15.88;78.65
34979;BME280;21185;50.978;13.720;2023-08-07T18:35:38;97907.66;;;15.89;78.67
34979;BME280;21185;50.978;13.720;2023-08-07T18:40:40;97919.13;;;15.88;78.53
34979;BME280;21185;50.978;13.720;2023-08-07T18:45:42;97912.28;;;15.87;78.63
34979;BME280;21185;50.978;13.720;2023-08-07T18:50:44;97920.34;;;15.85;78.65
34979;BME280;21185;50.978;13.720;2023-08-07T18:55:46;97921.16;;;15.79;78.65
34979;BME280;21185;50.978;13.720;2023-08-07T19:00:48;97921.75;;;15.75;78.40
34979;BME280;21185;50.978;13.720;2023-08-07T19:05:50;97939.88;;;15.70;78.48
34979;BME280;21185;50.978;13.720;2023-08-07T19:10:52;97949.94;;;15.66;78.18
34979;BME280;21185;50.978;13.720;2023-08-07T19:15:55;97949.53;;;15.63;78.29
34979;BME280;21185;50.978;13.720;2023-08-07T19:20:57;97953.16;;;15.62;78.22
34979;BME280;21185;50.978;13.720;2023-08-07T19:26:01;97952.59;;;15.60;78.17
34979;BME280;21185;50.978;13.720;2023-08-07T19:31:03;97957.22;;;15.58;78.08
34979;BME280;21185;50.978;13.720;2023-08-07T19:36:07;97954.16;;;15.54;78.08
34979;BME280;21185;50.978;13.720;2023-08-07T19:41:09;97956.19;;;15.52;77.72
34979;BME280;21185;50.978;13.720;2023-08-07T19:46:12;97965.44;;;15.48;77.86
34979;BME280;21185;50.978;13.720;2023-08-07T19:51:14;97971.25;;;15.43;77.49
34979;BME280;21185;50.978;13.720;2023-08-07T19:56:17;97970.66;;;15.41;77.51
34979;BME280;21185;50.978;13.720;2023-08-07T20:01:19;97965.44;;;15.41;77.65
34979;BME280;21185;50.978;13.720;2023-08-07T20:06:21;97969.66;;;15.42;77.26
34979;BME280;21185;50.978;13.720;2023-08-07T20:11:25;97972.06;;;15.44;77.39
34979;BME280;21185;50.978;13.720;2023-08-07T20:16:27;97979.91;;;15.44;77.16
34979;BME280;21185;50.978;13.720;2023-08-07T20:21:33;97976.50;;;15.43;77.08
34979;BME280;21185;50.978;13.720;2023-08-07T20:26:35;97976.50;;;15.43;76.93
34979;BME280;21185;50.978;13.720;2023-08-07T20:31:37;97985.13;;;15.44;76.53
34979;BME280;21185;50.978;13.720;2023-08-07T20:36:39;97998.41;;;15.42;76.51
34979;BME280;21185;50.978;13.720;2023-08-07T20:41:41;98003.84;;;15.41;76.63
34979;BME280;21185;50.978;13.720;2023-08-07T20:46:43;98008.25;;;15.40;76.52
34979;BME280;21185;50.978;13.720;2023-08-07T20:51:45;98009.88;;;15.41;76.50
34979;BME280;21185;50.978;13.720;2023-08-07T20:56:46;98013.28;;;15.42;75.99
34979;BME280;21185;50.978;13.720;2023-08-07T21:01:48;98013.50;;;15.40;76.05
34979;BME280;21185;50.978;13.720;2023-08-07T21:06:51;98023.34;;;15.38;75.38
34979;BME280;21185;50.978;13.720;2023-08-07T21:11:54;98029.16;;;15.34;75.29
34979;BME280;21185;50.978;13.720;2023-08-07T21:16:57;98025.13;;;15.31;75.13
34979;BME280;21185;50.978;13.720;2023-08-07T21:21:59;98028.97;;;15.29;74.67
34979;BME280;21185;50.978;13.720;2023-08-07T21:27:01;98031.97;;;15.26;75.29
34979;BME280;21185;50.978;13.720;2023-08-07T21:32:04;98026.53;;;15.20;75.39
34979;BME280;21185;50.978;13.720;2023-08-07T21:37:06;98019.28;;;15.16;75.43
34979;BME280;21185;50.978;13.720;2023-08-07T21:42:08;98030.72;;;15.15;75.55
34979;BME280;21185;50.978;13.720;2023-08-07T21:47:10;98028.94;;;15.15;75.87
34979;BME280;21185;50.978;13.720;2023-08-07T21:52:11;98033.16;;;15.16;76.15
34979;BME280;21185;50.978;13.720;2023-08-07T21:57:13;98034.16;;;15.15;76.49
34979;BME280;21185;50.978;13.720;2023-08-07T22:02:15;98030.53;;;15.16;76.63
34979;BME280;21185;50.978;13.720;2023-08-07T22:07:17;98032.53;;;15.14;76.69
34979;BME280;21185;50.978;13.720;2023-08-07T22:12:19;98038.56;;;15.15;76.80
34979;BME280;21185;50.978;13.720;2023-08-07T22:17:21;98036.16;;;15.13;76.41
34979;BME280;21185;50.978;13.720;2023-08-07T22:22:22;98037.34;;;15.11;76.14
34979;BME280;21185;50.978;13.720;2023-08-07T22:27:24;98042.97;;;15.08;76.22
34979;BME280;21185;50.978;13.720;2023-08-07T22:32:28;98043.78;;;15.08;76.46
34979;BME280;21185;50.978;13.720;2023-08-07T22:37:30;98040.34;;;15.08;76.38
34979;BME280;21185;50.978;13.720;2023-08-07T22:42:32;98041.75;;;15.04;76.17
34979;BME280;21185;50.978;13.720;2023-08-07T22:47:34;98037.31;;;14.98;75.99
34979;BME280;21185;50.978;13.720;2023-08-07T22:52:36;98036.28;;;14.92;76.12
34979;BME280;21185;50.978;13.720;2023-08-07T22:57:38;98027.03;;;14.89;76.01
34979;BME280;21185;50.978;13.720;2023-08-07T23:02:40;98036.47;;;14.90;75.98
34979;BME280;21185;50.978;13.720;2023-08-07T23:07:42;98038.09;;;14.92;76.06
34979;BME280;21185;50.978;13.720;2023-08-07T23:12:47;98033.47;;;14.94;76.23
34979;BME280;21185;50.978;13.720;2023-08-07T23:17:49;98033.66;;;14.92;76.16
34979;BME280;21185;50.978;13.720;2023-08-07T23:22:51;98026.41;;;14.87;76.12
34979;BME280;21185;50.978;13.720;2023-08-07T23:27:54;98031.03;;;14.85;76.15
34979;BME280;21185;50.978;13.720;2023-08-07T23:32:56;98028.19;;;14.80;76.00
34979;BME280;21185;50.978;13.720;2023-08-07T23:37:58;98032.81;;;14.78;75.78
34979;BME280;21185;50.978;13.720;2023-08-07T23:43:00;98025.16;;;14.77;75.86
34979;BME280;21185;50.978;13.720;2023-08-07T23:48:02;98027.97;;;14.75;75.43
34979;BME280;21185;50.978;13.720;2023-08-07T23:53:04;98019.53;;;14.73;75.53
34979;BME280;21185;50.978;13.720;2023-08-07T23:58:06;98028.56;;;14.71;75.40
